This is the latest recevied weather packets stored in our database for station/object IZ1UQG-N2. If no packets are shown the sender has not sent any weather packets the latest 10 day(s).
| Time | Temp. | Humidity | Pressure | Rain* | Wind** | Luminosity | Snow |
|---|---|---|---|---|---|---|---|
| 1787472702 | 18.33° C | 74% | 1018.8 hPa | 0 mm | - | 100 W/m² | - |
| 1787472462 | 18.33° C | 75% | 1018.8 hPa | 0.25 mm | - | 95 W/m² | - |
| 1787472401 | 18.33° C | 75% | 1018.8 hPa | 0.25 mm | - | 95 W/m² | - |
| 1787472341 | 18.33° C | 74% | 1018.8 hPa | 0.25 mm | - | 81 W/m² | - |
| 1787472162 | 18.33° C | 74% | 1018.7 hPa | 0.25 mm | - | 81 W/m² | - |
| 1787472102 | 18.33° C | 74% | 1018.7 hPa | 0.25 mm | - | 81 W/m² | - |
| 1787472042 | 18.33° C | 73% | 1018.7 hPa | 0.25 mm | - | 79 W/m² | - |
| 1787471801 | 18.33° C | 76% | 1018.9 hPa | 0.25 mm | - | 90 W/m² | - |
| 1787471741 | 18.33° C | 76% | 1018.9 hPa | 0.25 mm | - | 90 W/m² | - |
| 1787471681 | 18.33° C | 74% | 1018.9 hPa | 0.25 mm | - | 107 W/m² | - |
| 1787471503 | 18.33° C | 74% | 1018.8 hPa | 0.25 mm | - | 105 W/m² | - |
| 1787471442 | 18.33° C | 74% | 1018.8 hPa | 0.25 mm | - | 105 W/m² | - |
| 1787471382 | 18.33° C | 75% | 1018.9 hPa | 0.25 mm | - | 111 W/m² | - |
| 1787471142 | 18.33° C | 75% | 1018.8 hPa | 16.26 mm | - | 111 W/m² | - |
| 1787471081 | 18.33° C | 75% | 1018.8 hPa | 16.26 mm | - | 111 W/m² | - |
| 1787471023 | 18.33° C | 74% | 1018.8 hPa | 16.26 mm | - | 100 W/m² | - |
| 1787470782 | 18.33° C | 74% | 1018.7 hPa | 16.26 mm | - | 100 W/m² | - |
| 1787470721 | 18.33° C | 74% | 1018.7 hPa | 16.26 mm | - | 100 W/m² | - |
| 1787470661 | 18.33° C | 71% | 1018.7 hPa | 16.26 mm | - | 76 W/m² | - |
| 1787470423 | 18.33° C | 71% | 1018.7 hPa | 16.26 mm | - | 76 W/m² | - |
| 1787470362 | 18.33° C | 71% | 1018.7 hPa | 16.26 mm | - | 76 W/m² | - |
| 1787470306 | 18.33° C | 71% | 1018.7 hPa | 16.26 mm | - | 70 W/m² | - |
| 1787470242 | 18.33° C | 71% | 1018.7 hPa | 16.26 mm | - | 70 W/m² | - |
| 1787470182 | 18.33° C | 71% | 1018.6 hPa | 16.26 mm | - | 70 W/m² | - |
| 1787470123 | 18.33° C | 71% | 1018.6 hPa | 16.26 mm | - | 70 W/m² | - |
* Rain latest hour (hover to see other rain measurements)
** Current wind speed in m/s (hover to see current wind gust speed)